Thursday, April 17, 2014
09:36 UTC
  |  Log In   |  Register Free
Airport Search:

Dawson Municipal Airport
(16J)

Dawson Municipal Airport Diagram
No Airport Diagram Available

FAA data valid effective April 3, 2014 until May 29, 2014 (unless otherwise noted).

 
 
 
 
 
 
 
 
 
 
 
 
 
 

Current Aviation Weather for Dawson Municipal Airport (16J)

The most recent METAR observation for KABY was updated at: 0853 UTC
METAR Summary (Translated METAR)
KABY
170853Z 06009G15KT 10SM OVC047 10/06 A3030 RMK AO2 SLP259 T01000056 55004
KMGR
(33.7 nm SE from KABY)
170855Z AUTO 05007KT 017V077 10SM BKN018 10/07 A3026 RMK AO2
TAF Summary (Translated TAF)
KABY
170520Z 1706/1806 07009KT P6SM SCT040 FM171300 08011G18KT P6SM BKN025 FM171700 09010KT P6SM BKN040 FM180300 08011KT P6SM BKN025
  Airport Weather Conditions for 16J

Current weather conditions are
not available for 16J


The nearest NOAA weather station
is at ABY, (17 nm SE from 16J)
  
 Current Weather at ABY
50° F
Overcast
Northeast winds at 10.4 mph
ABY NOAA Radar

Pressure: 30.30 in
Humidity: 74%
Wind: from the Northeast at 10.4 gusting to 17.3 MPH (9 gusting to 15 KT)
Dew Point: 42.1°F
Visibility: 10.00 mi


Airport Weather Forecast for 16J

Translated METAR and TAF for KABY
Translated METAR for KABY (0936 UTC 17 April 2014)
found at http://aviationweather.gov/adds/metars/
 
METAR text: KABY 170909Z 07008KT 10SM BKN022 OVC047 10/06 A3030 RMK AO2
Conditions at: KABY (ALBANY , GA, US) observed 0909 UTC 17 April 2014
Temperature: 10.0°C (50°F)
Dewpoint: 6.0°C (43°F) [RH = 76%]
Pressure (altimeter): 30.30 inches Hg (1026.2 mb)
Winds: from the ENE (70 degrees) at 9 MPH (8 knots; 4.2 m/s)
Visibility: 10 or more miles (16+ km)
Ceiling: 2200 feet AGL
Clouds: broken clouds at 2200 feet AGL
overcast cloud deck at 4700 feet AGL
Weather: no significant weather observed at this time
Translated TAF for KABY
Forecast for: KABY (ALBANY , GA, US)
TAF Text: KABY 170520Z 1706/1806 07009KT P6SM SCT040
Forecast period: 0600 to 1300 UTC 17 April 2014
Forecast type: FROM: standard forecast or significant change
Winds: from the ENE (70 degrees) at 10 MPH (9 knots; 4.7 m/s)
Visibility: 6 or more miles (10+ km)
Clouds: scattered clouds at 4000 feet AGL
Weather: no significant weather forecast for this period
TAF Text: FM171300 08011G18KT P6SM BKN025
Forecast period: 1300 to 1700 UTC 17 April 2014
Forecast type: FROM: standard forecast or significant change
Winds: from the E (80 degrees) at 13 MPH (11 knots; 5.7 m/s)
gusting to 21 MPH (18 knots; 9.4 m/s)
Visibility: 6 or more miles (10+ km)
Ceiling: 2500 feet AGL
Clouds: broken clouds at 2500 feet AGL
Weather: no significant weather forecast for this period
TAF Text: FM171700 09010KT P6SM BKN040
Forecast period: 1700 UTC 17 April 2014 to 0300 UTC 18 April 2014
Forecast type: FROM: standard forecast or significant change
Winds: from the E (90 degrees) at 12 MPH (10 knots; 5.2 m/s)
Visibility: 6 or more miles (10+ km)
Ceiling: 4000 feet AGL
Clouds: broken clouds at 4000 feet AGL
Weather: no significant weather forecast for this period
TAF Text: FM180300 08011KT P6SM BKN025
Forecast period: 0300 to 0600 UTC 18 April 2014
Forecast type: FROM: standard forecast or significant change
Winds: from the E (80 degrees) at 13 MPH (11 knots; 5.7 m/s)
Visibility: 6 or more miles (10+ km)
Ceiling: 2500 feet AGL
Clouds: broken clouds at 2500 feet AGL
Weather: no significant weather forecast for this period

Find All Airport Services Find A Hotel Find A Rental Car Find A Golf Course Find A Restaurant $100 Hamburger



FBO's on the Field
FBO Company Facility Photos Services Transportation Aviation Fuel Prices: Prices include tax
Catering Weather Repair Courtesy Rental Type 100LL JetA JetA+ MOGAS 8087
 
Dawson/Terrell Co. Airport

This FBO has not yet been rated
FS:Independent
Last Updated: Mar-28
Login to update fuel prices
SS:
Contact Dawson/Terrell Co. AirportMore FBO Information
 
Add another FBO Facility Photos Catering Weather Repair Courtesy Rental Type 100LL JetA JetA+ MOGAS 8087
Services Transportation Aviation Fuel Prices: Prices include tax


GlobalAir.com Airport Resource Center model-print
model-print
model-print
model-print